createdAt,value
2023-01-29T00:00:48.180Z,2.14
2023-01-29T00:03:42.025Z,2.13
2023-01-29T00:06:15.715Z,2.15
2023-01-29T00:08:50.040Z,2.17
2023-01-29T00:11:24.497Z,2.11
2023-01-29T00:13:58.356Z,2.04
2023-01-29T00:16:31.928Z,1.97
2023-01-29T00:19:07.199Z,1.92
2023-01-29T00:21:41.023Z,1.90
2023-01-29T00:24:15.102Z,1.89
2023-01-29T00:26:50.419Z,1.88
2023-01-29T00:29:24.055Z,1.87
2023-01-29T00:31:58.512Z,1.86
2023-01-29T00:34:32.411Z,1.85
2023-01-29T00:37:06.827Z,1.84
2023-01-29T00:39:47.889Z,1.83
2023-01-29T00:42:40.061Z,1.80
2023-01-29T00:45:14.814Z,1.81
2023-01-29T00:47:48.841Z,1.82
2023-01-29T00:50:22.635Z,1.84
2023-01-29T00:52:55.999Z,1.85
2023-01-29T00:55:29.977Z,1.82
2023-01-29T00:58:04.092Z,1.79
2023-01-29T01:00:37.560Z,1.73
2023-01-29T01:03:11.879Z,1.72
2023-01-29T01:05:48.219Z,1.68
2023-01-29T01:08:39.029Z,1.63
2023-01-29T01:11:13.276Z,1.63
2023-01-29T01:13:47.665Z,1.63
2023-01-29T01:16:21.654Z,1.63
2023-01-29T01:18:55.321Z,1.65
2023-01-29T01:21:29.281Z,1.64
2023-01-29T01:24:06.240Z,1.63
2023-01-29T01:26:39.800Z,1.65
2023-01-29T01:29:13.464Z,1.70
2023-01-29T01:31:47.282Z,1.71
2023-01-29T01:34:22.528Z,1.69
2023-01-29T01:36:56.736Z,1.64
2023-01-29T01:39:30.881Z,1.61
2023-01-29T01:42:05.004Z,1.59
2023-01-29T01:45:01.602Z,1.56
2023-01-29T01:47:44.011Z,1.55
2023-01-29T01:50:21.596Z,1.53
2023-01-29T01:52:59.028Z,1.50
2023-01-29T01:55:35.957Z,1.51
2023-01-29T01:58:15.475Z,1.50
2023-01-29T02:00:49.547Z,1.51
2023-01-29T02:03:42.063Z,1.49
2023-01-29T02:06:33.584Z,1.49
2023-01-29T02:09:30.234Z,1.53
2023-01-29T02:12:06.283Z,1.55
2023-01-29T02:14:41.631Z,1.56
2023-01-29T02:17:16.984Z,1.57
2023-01-29T02:19:58.442Z,1.56
2023-01-29T02:22:48.850Z,1.57
2023-01-29T02:25:58.439Z,1.56
2023-01-29T02:28:49.354Z,1.53
2023-01-29T02:31:31.217Z,1.53
2023-01-29T02:34:14.118Z,1.56
2023-01-29T02:36:53.253Z,1.57
2023-01-29T02:39:42.484Z,1.59
2023-01-29T02:42:27.522Z,1.61
2023-01-29T02:45:08.198Z,1.60
2023-01-29T02:47:49.335Z,1.62
2023-01-29T02:50:27.970Z,1.63
2023-01-29T02:53:08.316Z,1.63
2023-01-29T02:55:46.503Z,1.63
2023-01-29T02:58:22.535Z,1.64
2023-01-29T03:01:00.606Z,1.63
2023-01-29T03:03:40.379Z,1.62
2023-01-29T03:06:22.762Z,1.61
2023-01-29T03:09:00.528Z,1.59
2023-01-29T03:11:38.749Z,1.57
2023-01-29T03:14:17.662Z,1.56
2023-01-29T03:16:55.136Z,1.55
2023-01-29T03:19:39.755Z,1.56
2023-01-29T03:22:22.322Z,1.55
2023-01-29T03:25:16.206Z,1.55
2023-01-29T03:28:12.793Z,1.54
2023-01-29T03:31:11.168Z,1.54
2023-01-29T03:33:54.328Z,1.53
2023-01-29T03:36:38.603Z,1.50
2023-01-29T03:39:13.759Z,1.52
2023-01-29T03:41:54.805Z,1.50
2023-01-29T03:44:38.019Z,1.48
2023-01-29T03:47:21.982Z,1.48
2023-01-29T03:50:03.758Z,1.50
2023-01-29T03:52:47.778Z,1.52
2023-01-29T03:55:27.267Z,1.51
2023-01-29T03:58:06.974Z,1.52
2023-01-29T04:00:46.256Z,1.50
2023-01-29T04:03:25.237Z,1.47
2023-01-29T04:06:10.201Z,1.46
2023-01-29T04:08:55.129Z,1.47
2023-01-29T04:11:31.161Z,1.48
2023-01-29T04:14:04.814Z,1.48
2023-01-29T04:16:42.599Z,1.47
2023-01-29T04:19:43.053Z,1.49
2023-01-29T04:22:22.333Z,1.52
2023-01-29T04:25:02.976Z,1.54
2023-01-29T04:27:45.815Z,1.56
2023-01-29T04:30:30.484Z,1.56
2023-01-29T04:33:20.121Z,1.53
2023-01-29T04:36:18.191Z,1.51
2023-01-29T04:39:04.269Z,1.49
2023-01-29T04:41:44.371Z,1.48
2023-01-29T04:44:23.715Z,1.52
2023-01-29T04:47:10.255Z,1.54
2023-01-29T04:49:48.895Z,1.54
2023-01-29T04:52:31.194Z,1.56
2023-01-29T04:55:11.323Z,1.57
2023-01-29T04:57:53.426Z,1.53
2023-01-29T05:00:32.651Z,1.50
2023-01-29T05:03:10.120Z,1.51
2023-01-29T05:05:47.200Z,1.49
2023-01-29T05:08:24.425Z,1.48
2023-01-29T05:11:00.771Z,1.46
2023-01-29T05:13:38.510Z,1.44
2023-01-29T05:16:18.623Z,1.45
2023-01-29T05:18:53.207Z,1.49
2023-01-29T05:21:28.648Z,1.51
2023-01-29T05:24:14.088Z,1.54
2023-01-29T05:27:06.592Z,1.56
2023-01-29T05:29:42.763Z,1.55
2023-01-29T05:32:17.174Z,1.51
2023-01-29T05:34:51.160Z,1.49
2023-01-29T05:37:24.729Z,1.49
2023-01-29T05:39:58.709Z,1.47
2023-01-29T05:42:32.568Z,1.48
2023-01-29T05:45:06.416Z,1.50
2023-01-29T05:47:40.013Z,1.50
2023-01-29T05:50:15.614Z,1.49
2023-01-29T05:52:49.552Z,1.48
2023-01-29T05:55:23.339Z,1.48
2023-01-29T05:57:56.964Z,1.48
2023-01-29T06:00:31.122Z,1.46
2023-01-29T06:03:05.141Z,1.44
2023-01-29T06:05:41.303Z,1.44
2023-01-29T06:08:15.196Z,1.45
2023-01-29T06:10:49.018Z,1.45
2023-01-29T06:13:23.789Z,1.47
2023-01-29T06:15:57.640Z,1.49
2023-01-29T06:18:31.452Z,1.51
2023-01-29T06:21:07.637Z,1.53
2023-01-29T06:23:42.496Z,1.53
2023-01-29T06:26:17.850Z,1.54
2023-01-29T06:28:53.939Z,1.51
2023-01-29T06:31:38.218Z,1.50
2023-01-29T06:34:16.603Z,1.54
2023-01-29T06:36:50.913Z,1.57
2023-01-29T06:39:24.651Z,1.60
2023-01-29T06:41:58.261Z,1.64
2023-01-29T06:44:32.304Z,1.67
2023-01-29T06:47:05.945Z,1.69
2023-01-29T06:49:39.235Z,1.69
2023-01-29T06:52:12.919Z,1.68
2023-01-29T06:54:46.517Z,1.66
2023-01-29T06:57:21.004Z,1.61
2023-01-29T06:59:54.814Z,1.59
2023-01-29T07:02:28.287Z,1.59
2023-01-29T07:05:02.136Z,1.59
2023-01-29T07:07:38.790Z,1.60
2023-01-29T07:10:13.808Z,1.63
2023-01-29T07:12:47.766Z,1.65
2023-01-29T07:15:22.433Z,1.66
2023-01-29T07:18:04.907Z,1.70
2023-01-29T07:20:39.607Z,1.74
2023-01-29T07:23:15.355Z,1.79
2023-01-29T07:25:50.159Z,1.84
2023-01-29T07:28:23.677Z,1.87
2023-01-29T07:31:00.854Z,1.88
2023-01-29T07:33:34.681Z,1.88
2023-01-29T07:36:11.629Z,1.92
2023-01-29T07:38:45.569Z,1.96
2023-01-29T07:41:19.664Z,1.98
2023-01-29T07:43:53.331Z,1.99
2023-01-29T07:46:27.095Z,2.03
2023-01-29T07:49:01.567Z,2.08
2023-01-29T07:51:35.524Z,2.13
2023-01-29T07:54:09.545Z,2.19
2023-01-29T07:56:43.225Z,2.24
2023-01-29T07:59:17.525Z,2.22
2023-01-29T08:01:51.173Z,2.23
2023-01-29T08:04:25.451Z,2.25
2023-01-29T08:06:58.923Z,2.25
2023-01-29T08:09:36.418Z,2.24
2023-01-29T08:12:10.660Z,2.25
2023-01-29T08:14:46.091Z,2.27
2023-01-29T08:17:19.627Z,2.25
2023-01-29T08:19:53.669Z,2.20
2023-01-29T08:22:27.377Z,2.20
2023-01-29T08:25:08.228Z,2.22
2023-01-29T08:27:43.463Z,2.30
2023-01-29T08:30:18.674Z,2.39
2023-01-29T08:32:52.332Z,2.43
2023-01-29T08:35:26.972Z,2.48
2023-01-29T08:38:21.507Z,2.54
2023-01-29T08:40:55.338Z,2.62
2023-01-29T08:43:29.138Z,2.67
2023-01-29T08:46:02.767Z,2.69
2023-01-29T08:48:39.965Z,2.70
2023-01-29T08:51:14.610Z,2.72
2023-01-29T08:53:56.883Z,2.75
2023-01-29T08:56:31.021Z,2.77
2023-01-29T08:59:04.685Z,2.78
2023-01-29T09:01:38.592Z,2.79
2023-01-29T09:04:12.275Z,2.85
2023-01-29T09:06:45.654Z,2.93
2023-01-29T09:09:20.015Z,2.98
2023-01-29T09:11:53.519Z,3.07
2023-01-29T09:14:28.047Z,3.21
2023-01-29T09:17:01.916Z,3.38
2023-01-29T09:19:35.530Z,3.55
2023-01-29T09:22:10.982Z,3.63
2023-01-29T09:24:46.166Z,3.66
2023-01-29T09:27:19.782Z,3.75
2023-01-29T09:29:53.265Z,3.78
2023-01-29T09:32:52.161Z,3.75
2023-01-29T09:35:21.754Z,3.69
2023-01-29T09:37:56.051Z,3.61
2023-01-29T09:40:40.463Z,3.57
2023-01-29T09:43:19.111Z,3.59
2023-01-29T09:45:55.738Z,3.59
2023-01-29T09:48:33.752Z,3.56
2023-01-29T09:51:15.440Z,3.68
2023-01-29T09:53:53.662Z,3.92
2023-01-29T09:56:29.341Z,4.14
2023-01-29T09:59:03.251Z,4.27
2023-01-29T10:01:47.132Z,4.39
2023-01-29T10:04:46.011Z,4.41
2023-01-29T10:08:01.819Z,4.31
2023-01-29T10:10:48.705Z,4.19
2023-01-29T10:13:34.600Z,4.12
2023-01-29T10:16:30.870Z,4.03
2023-01-29T10:19:32.285Z,3.91
2023-01-29T10:22:36.459Z,3.79
2023-01-29T10:25:15.942Z,3.70
2023-01-29T10:27:53.940Z,3.62
2023-01-29T10:30:33.880Z,3.50
2023-01-29T10:33:14.572Z,3.40
2023-01-29T10:35:53.797Z,3.33
2023-01-29T10:38:45.824Z,3.27
2023-01-29T10:41:45.396Z,3.27
2023-01-29T10:44:29.390Z,3.24
2023-01-29T10:47:17.237Z,3.21
2023-01-29T10:50:13.586Z,3.19
2023-01-29T10:53:01.265Z,3.17
2023-01-29T10:55:48.936Z,3.18
2023-01-29T10:58:33.578Z,3.12
2023-01-29T11:01:07.713Z,3.01
2023-01-29T11:03:42.092Z,3.05
2023-01-29T11:06:23.984Z,3.13
2023-01-29T11:09:03.296Z,3.15
2023-01-29T11:11:43.128Z,3.16
2023-01-29T11:14:23.857Z,3.15
2023-01-29T11:16:58.632Z,3.18
2023-01-29T11:19:43.758Z,3.30
2023-01-29T11:22:22.664Z,3.46
2023-01-29T11:25:17.717Z,3.57
2023-01-29T11:27:54.549Z,3.60
2023-01-29T11:30:32.259Z,3.60
2023-01-29T11:33:19.200Z,3.55
2023-01-29T11:35:54.205Z,3.54
2023-01-29T11:38:30.177Z,3.54
2023-01-29T11:41:09.651Z,3.54
2023-01-29T11:43:44.338Z,3.55
2023-01-29T11:46:20.046Z,3.56
2023-01-29T11:48:59.228Z,3.59
2023-01-29T11:51:43.432Z,3.57
2023-01-29T11:54:21.447Z,3.51
2023-01-29T11:56:56.012Z,3.44
2023-01-29T11:59:44.789Z,3.36
2023-01-29T12:02:31.142Z,3.32
2023-01-29T12:05:15.465Z,3.26
2023-01-29T12:07:55.058Z,3.20
2023-01-29T12:10:38.384Z,3.16
2023-01-29T12:13:27.643Z,3.14
2023-01-29T12:16:20.857Z,3.12
2023-01-29T12:18:58.833Z,3.10
2023-01-29T12:21:39.326Z,3.07
2023-01-29T12:24:24.907Z,3.06
2023-01-29T12:27:08.343Z,3.06
2023-01-29T12:29:49.382Z,3.06
2023-01-29T12:32:34.787Z,3.06
2023-01-29T12:35:17.239Z,3.06
2023-01-29T12:37:59.500Z,3.04
2023-01-29T12:40:42.405Z,3.00
2023-01-29T12:43:20.665Z,2.97
2023-01-29T12:45:59.805Z,2.99
2023-01-29T12:48:38.874Z,2.96
2023-01-29T12:51:18.144Z,2.93
2023-01-29T12:53:58.764Z,2.89
2023-01-29T12:56:37.328Z,2.88
2023-01-29T12:59:21.637Z,2.85
2023-01-29T13:02:00.142Z,2.86
2023-01-29T13:04:42.919Z,2.87
2023-01-29T13:07:24.068Z,2.83
2023-01-29T13:10:06.630Z,2.78
2023-01-29T13:12:51.590Z,2.69
2023-01-29T13:15:31.833Z,2.63
2023-01-29T13:18:35.309Z,2.62
2023-01-29T13:21:13.812Z,2.57
2023-01-29T13:23:56.605Z,2.54
2023-01-29T13:26:31.245Z,2.49
2023-01-29T13:29:05.908Z,2.43
2023-01-29T13:31:49.471Z,2.42
2023-01-29T13:34:28.830Z,2.42
2023-01-29T13:37:11.834Z,2.43
2023-01-29T13:39:52.462Z,2.44
2023-01-29T13:42:41.867Z,2.44
2023-01-29T13:45:25.471Z,2.43
2023-01-29T13:48:23.444Z,2.43
2023-01-29T13:51:04.070Z,2.44
2023-01-29T13:53:42.987Z,2.41
2023-01-29T13:56:59.478Z,2.39
2023-01-29T13:59:55.666Z,2.37
2023-01-29T14:02:31.878Z,2.33
2023-01-29T14:05:45.993Z,2.33
2023-01-29T14:08:42.457Z,2.30
2023-01-29T14:11:38.126Z,2.31
2023-01-29T14:14:42.868Z,2.34
2023-01-29T14:17:19.173Z,2.39
2023-01-29T14:19:55.057Z,2.41
2023-01-29T14:22:33.889Z,2.42
2023-01-29T14:25:23.547Z,2.39
2023-01-29T14:27:58.496Z,2.38
2023-01-29T14:30:37.561Z,2.39
2023-01-29T14:33:30.393Z,2.40
2023-01-29T14:36:14.020Z,2.42
2023-01-29T14:38:57.430Z,2.42
2023-01-29T14:41:37.774Z,2.40
2023-01-29T14:44:48.229Z,2.37
2023-01-29T14:48:07.785Z,2.36
2023-01-29T14:50:59.651Z,2.36
2023-01-29T14:53:47.695Z,2.38
2023-01-29T14:56:29.295Z,2.42
2023-01-29T14:59:18.163Z,2.43
2023-01-29T15:01:58.169Z,2.42
2023-01-29T15:04:46.377Z,2.40
2023-01-29T15:07:32.341Z,2.37
2023-01-29T15:10:23.059Z,2.35
2023-01-29T15:13:03.809Z,2.35
2023-01-29T15:15:45.343Z,2.34
2023-01-29T15:18:22.748Z,2.36
2023-01-29T15:21:08.903Z,2.34
2023-01-29T15:23:45.015Z,2.31
2023-01-29T15:26:26.993Z,2.36
2023-01-29T15:29:06.327Z,2.40
2023-01-29T15:31:45.178Z,2.38
2023-01-29T15:34:22.196Z,2.34
2023-01-29T15:36:57.041Z,2.29
2023-01-29T15:39:32.612Z,2.24
2023-01-29T15:42:24.225Z,2.23
2023-01-29T15:45:03.662Z,2.24
2023-01-29T15:47:40.833Z,2.24
2023-01-29T15:50:17.481Z,2.22
2023-01-29T15:52:56.912Z,2.18
2023-01-29T15:55:34.956Z,2.12
2023-01-29T15:58:14.789Z,2.07
2023-01-29T16:00:59.084Z,2.04
2023-01-29T16:03:39.921Z,2.01
2023-01-29T16:06:19.159Z,2.00
2023-01-29T16:08:56.315Z,2.03
2023-01-29T16:11:34.231Z,2.05
2023-01-29T16:14:11.192Z,2.05
2023-01-29T16:16:49.165Z,2.09
2023-01-29T16:19:31.806Z,2.14
2023-01-29T16:22:09.731Z,2.18
2023-01-29T16:24:48.848Z,2.21
2023-01-29T16:27:28.194Z,2.25
2023-01-29T16:30:03.695Z,2.26
2023-01-29T16:32:43.187Z,2.28
2023-01-29T16:35:21.952Z,2.28
2023-01-29T16:38:05.291Z,2.31
2023-01-29T16:41:03.786Z,2.33
2023-01-29T16:44:03.468Z,2.36
2023-01-29T16:46:48.229Z,2.36
2023-01-29T16:49:59.165Z,2.37
2023-01-29T16:52:39.489Z,2.35
2023-01-29T16:55:26.520Z,2.34
2023-01-29T16:58:14.803Z,2.35
2023-01-29T17:00:58.368Z,2.37
2023-01-29T17:03:38.017Z,2.38
2023-01-29T17:06:21.646Z,2.38
2023-01-29T17:09:00.521Z,2.36
2023-01-29T17:11:42.446Z,2.31
2023-01-29T17:14:26.545Z,2.27
2023-01-29T17:17:09.094Z,2.26
2023-01-29T17:19:45.001Z,2.23
2023-01-29T17:22:23.186Z,2.18
2023-01-29T17:25:01.252Z,2.16
2023-01-29T17:27:44.510Z,2.15
2023-01-29T17:30:24.277Z,2.17
2023-01-29T17:33:11.770Z,2.19
2023-01-29T17:35:49.313Z,2.22
2023-01-29T17:38:31.433Z,2.23
2023-01-29T17:41:17.636Z,2.27
2023-01-29T17:43:57.901Z,2.29
2023-01-29T17:46:37.216Z,2.26
2023-01-29T17:49:28.749Z,2.26
2023-01-29T17:52:10.951Z,2.24
2023-01-29T17:54:46.722Z,2.26
2023-01-29T17:57:23.213Z,2.28
2023-01-29T18:00:14.364Z,2.24
2023-01-29T18:03:00.988Z,2.20
2023-01-29T18:05:43.750Z,2.19
2023-01-29T18:08:33.559Z,2.19
2023-01-29T18:11:14.830Z,2.15
2023-01-29T18:13:53.516Z,2.14
2023-01-29T18:16:38.763Z,2.13
2023-01-29T18:19:22.152Z,2.12
2023-01-29T18:21:59.319Z,2.10
2023-01-29T18:24:36.612Z,2.11
2023-01-29T18:27:13.068Z,2.11
2023-01-29T18:29:54.324Z,2.13
2023-01-29T18:32:30.939Z,2.16
2023-01-29T18:35:11.472Z,2.16
2023-01-29T18:37:50.359Z,2.17
2023-01-29T18:40:30.407Z,2.17
2023-01-29T18:43:13.307Z,2.18
2023-01-29T18:45:52.742Z,2.18
2023-01-29T18:48:31.949Z,2.20
2023-01-29T18:51:10.593Z,2.24
2023-01-29T18:53:51.996Z,2.30
2023-01-29T18:56:31.327Z,2.35
2023-01-29T18:59:06.807Z,2.37
2023-01-29T19:01:47.576Z,2.36
2023-01-29T19:04:25.191Z,2.36
2023-01-29T19:07:02.039Z,2.39
2023-01-29T19:09:47.522Z,2.41
2023-01-29T19:12:25.667Z,2.43
2023-01-29T19:15:06.170Z,2.46
2023-01-29T19:17:46.585Z,2.49
2023-01-29T19:20:28.143Z,2.52
2023-01-29T19:23:04.996Z,2.55
2023-01-29T19:25:45.891Z,2.58
2023-01-29T19:28:26.229Z,2.58
2023-01-29T19:31:08.222Z,2.57
2023-01-29T19:33:48.237Z,2.55
2023-01-29T19:36:31.142Z,2.54
2023-01-29T19:39:17.556Z,2.52
2023-01-29T19:41:54.409Z,2.50
2023-01-29T19:44:31.704Z,2.50
2023-01-29T19:47:08.828Z,2.50
2023-01-29T19:49:48.870Z,2.47
2023-01-29T19:52:50.894Z,2.46
2023-01-29T19:55:30.831Z,2.48
2023-01-29T19:58:12.822Z,2.51
2023-01-29T20:01:00.574Z,2.51
2023-01-29T20:03:39.073Z,2.51
2023-01-29T20:06:16.579Z,2.51
2023-01-29T20:08:53.661Z,2.50
2023-01-29T20:11:38.189Z,2.52
2023-01-29T20:14:22.619Z,2.56
2023-01-29T20:17:01.631Z,2.56
2023-01-29T20:19:39.140Z,2.59
2023-01-29T20:22:17.788Z,2.56
2023-01-29T20:24:56.835Z,2.53
2023-01-29T20:27:41.238Z,2.52
2023-01-29T20:30:19.750Z,2.51
2023-01-29T20:32:58.509Z,2.53
2023-01-29T20:35:43.097Z,2.53
2023-01-29T20:38:26.981Z,2.53
2023-01-29T20:41:10.279Z,2.57
2023-01-29T20:43:51.452Z,2.56
2023-01-29T20:46:29.783Z,2.57
2023-01-29T20:49:07.878Z,2.59
2023-01-29T20:51:45.865Z,2.59
2023-01-29T20:54:26.149Z,2.58
2023-01-29T20:57:02.221Z,2.60
2023-01-29T20:59:39.479Z,2.60
2023-01-29T21:02:19.420Z,2.61
2023-01-29T21:04:55.725Z,2.63
2023-01-29T21:07:32.032Z,2.64
2023-01-29T21:10:12.358Z,2.62
2023-01-29T21:13:03.394Z,2.61
2023-01-29T21:15:41.342Z,2.63
2023-01-29T21:18:19.580Z,2.64
2023-01-29T21:20:56.330Z,2.66
2023-01-29T21:23:33.140Z,2.70
2023-01-29T21:26:10.444Z,2.74
2023-01-29T21:28:47.582Z,2.74
2023-01-29T21:31:23.687Z,2.70
2023-01-29T21:33:59.238Z,2.67
2023-01-29T21:36:34.262Z,2.67
2023-01-29T21:39:18.416Z,2.68
2023-01-29T21:42:11.841Z,2.71
2023-01-29T21:44:46.956Z,2.74
2023-01-29T21:47:22.821Z,2.75
2023-01-29T21:49:57.234Z,2.74
2023-01-29T21:52:31.753Z,2.73
2023-01-29T21:55:06.355Z,2.75
2023-01-29T21:57:43.206Z,2.75
2023-01-29T22:00:19.409Z,2.74
2023-01-29T22:02:53.924Z,2.72
2023-01-29T22:05:29.573Z,2.71
2023-01-29T22:08:05.396Z,2.74
2023-01-29T22:10:39.516Z,2.78
2023-01-29T22:13:14.770Z,2.81
2023-01-29T22:15:48.610Z,2.85
2023-01-29T22:18:22.282Z,2.87
2023-01-29T22:20:58.381Z,2.85
2023-01-29T22:23:32.867Z,2.85
2023-01-29T22:26:10.468Z,2.83
2023-01-29T22:28:44.627Z,2.81
2023-01-29T22:31:18.258Z,2.80
2023-01-29T22:33:53.625Z,2.80
2023-01-29T22:36:27.859Z,2.77
2023-01-29T22:39:01.601Z,2.71
2023-01-29T22:41:35.174Z,2.65
2023-01-29T22:44:10.451Z,2.64
2023-01-29T22:46:44.420Z,2.61
2023-01-29T22:49:17.929Z,2.60
2023-01-29T22:52:10.449Z,2.62
2023-01-29T22:54:45.830Z,2.64
2023-01-29T22:57:20.138Z,2.64
2023-01-29T22:59:55.856Z,2.67
2023-01-29T23:02:29.638Z,2.69
2023-01-29T23:05:04.119Z,2.71
2023-01-29T23:07:37.884Z,2.72
2023-01-29T23:10:15.335Z,2.73
2023-01-29T23:12:49.447Z,2.75
2023-01-29T23:15:23.157Z,2.76
2023-01-29T23:17:56.818Z,2.77
2023-01-29T23:20:30.871Z,2.79
2023-01-29T23:23:04.775Z,2.83
2023-01-29T23:25:55.846Z,2.87
2023-01-29T23:28:29.742Z,2.92
2023-01-29T23:31:03.697Z,2.94
2023-01-29T23:33:37.521Z,2.96
2023-01-29T23:36:12.036Z,2.99
2023-01-29T23:38:45.670Z,3.03
2023-01-29T23:41:19.229Z,3.04
2023-01-29T23:43:53.078Z,3.04
2023-01-29T23:46:27.251Z,3.04
2023-01-29T23:49:01.552Z,3.04
2023-01-29T23:51:35.687Z,3.01
2023-01-29T23:54:09.845Z,2.98
2023-01-29T23:56:43.928Z,2.99
2023-01-29T23:59:18.043Z,2.98
